地図

経路データ

SID SEASON NUMBER BASIN SUBBASIN NAME ISO_TIME NATURE LAT LON WMO_WIND WMO_PRES WMO_AGENCY TRACK_TYPE DIST2LAND LANDFALL IFLAG USA_AGENCY USA_ATCF_ID USA_LAT USA_LON USA_RECORD USA_STATUS USA_WIND USA_PRES USA_SSHS USA_R34_NE USA_R34_SE USA_R34_SW USA_R34_NW USA_R50_NE USA_R50_SE USA_R50_SW USA_R50_NW USA_R64_NE USA_R64_SE USA_R64_SW USA_R64_NW USA_POCI USA_ROCI USA_RMW USA_EYE TOKYO_LAT TOKYO_LON TOKYO_GRADE TOKYO_WIND TOKYO_PRES TOKYO_R50_DIR TOKYO_R50_LONG TOKYO_R50_SHORT TOKYO_R30_DIR TOKYO_R30_LONG TOKYO_R30_SHORT TOKYO_LAND CMA_LAT CMA_LON CMA_CAT CMA_WIND CMA_PRES HKO_LAT HKO_LON HKO_CAT HKO_WIND HKO_PRES NEWDELHI_LAT NEWDELHI_LON NEWDELHI_GRADE NEWDELHI_WIND NEWDELHI_PRES NEWDELHI_CI NEWDELHI_DP NEWDELHI_POCI REUNION_LAT REUNION_LON REUNION_TYPE REUNION_WIND REUNION_PRES REUNION_TNUM REUNION_CI REUNION_RMW REUNION_R34_NE REUNION_R34_SE REUNION_R34_SW REUNION_R34_NW REUNION_R50_NE REUNION_R50_SE REUNION_R50_SW REUNION_R50_NW REUNION_R64_NE REUNION_R64_SE REUNION_R64_SW REUNION_R64_NW BOM_LAT BOM_LON BOM_TYPE BOM_WIND BOM_PRES BOM_TNUM BOM_CI BOM_RMW BOM_R34_NE BOM_R34_SE BOM_R34_SW BOM_R34_NW BOM_R50_NE BOM_R50_SE BOM_R50_SW BOM_R50_NW BOM_R64_NE BOM_R64_SE BOM_R64_SW BOM_R64_NW BOM_ROCI BOM_POCI BOM_EYE BOM_POS_METHOD BOM_PRES_METHOD NADI_LAT NADI_LON NADI_CAT NADI_WIND NADI_PRES WELLINGTON_LAT WELLINGTON_LON WELLINGTON_WIND WELLINGTON_PRES DS824_LAT DS824_LON DS824_STAGE DS824_WIND DS824_PRES TD9636_LAT TD9636_LON TD9636_STAGE TD9636_WIND TD9636_PRES TD9635_LAT TD9635_LON TD9635_WIND TD9635_PRES TD9635_ROCI NEUMANN_LAT NEUMANN_LON NEUMANN_CLASS NEUMANN_WIND NEUMANN_PRES MLC_LAT MLC_LON MLC_CLASS MLC_WIND MLC_PRES USA_GUST BOM_GUST BOM_GUST_PER REUNION_GUST REUNION_GUST_PER USA_SEAHGT USA_SEARAD_NE USA_SEARAD_SE USA_SEARAD_SW USA_SEARAD_NW STORM_SPEED STORM_DIR
1973002S07060 1973 1 SI MM CHARLOTTE 1973-01-02 06:00:00 TS -7.00000 60.0000 main 1294 1257 O________OO___ jtwc_sh SH081973 -7.00000 60.0000 -1 -7.00000 60.0000 TC 25 -7.00000 60.0000 7 9 271
1973002S07060 1973 1 SI MM CHARLOTTE 1973-01-02 09:00:00 TS -6.99532 59.5430 main 1247 1211 P________PP___ SH081973 -6.98256 59.5550 -1 -6.98256 59.5550 TC 25 -7.02083 59.5189 7 9 269
1973002S07060 1973 1 SI MM CHARLOTTE 1973-01-02 12:00:00 TS -7.01770 59.0834 main 1211 1168 O________OP___ jtwc_sh SH081973 -7.00000 59.1000 -1 -7.00000 59.1000 TC 25 -7.05311 59.0503 7 9 264
1973002S07060 1973 1 SI MM CHARLOTTE 1973-01-02 15:00:00 TS -7.08794 58.6255 main 1159 1115 P________PP___ SH081973 -7.07750 58.6350 -1 -7.07750 58.6350 TC 25 -7.10883 58.6065 7 9 258
1973002S07060 1973 1 SI MM CHARLOTTE 1973-01-02 18:00:00 TS -7.20000 58.2000 main 1115 1081 O________OO___ jtwc_sh SH081973 -7.20000 58.2000 -1 -7.20000 58.2000 TC 25 -7.20000 58.2000 7 8 253
1973002S07060 1973 1 SI MM CHARLOTTE 1973-01-02 21:00:00 TS -7.32586 57.8401 main 1072 1032 P________PP___ SH081973 -7.31992 57.8424 -1 -7.31992 57.8424 TC 25 -7.33775 57.8355 7 8 246
1973002S07060 1973 1 SI MM CHARLOTTE 1973-01-03 00:00:00 TS -7.50981 57.4956 main 1032 982 O________OP___ jtwc_sh SH081973 -7.50000 57.5000 -1 -7.50000 57.5000 TC 25 -7.52943 57.4867 7 8 238
1973002S07060 1973 1 SI MM CHARLOTTE 1973-01-03 03:00:00 TS -7.76377 57.1215 main 977 921 P________PP___ SH081973 -7.75494 57.1224 -1 -7.75494 57.1224 TC 25 -7.78142 57.1196 7 10 233
1973002S07060 1973 1 SI MM CHARLOTTE 1973-01-03 06:00:00 TS -8.10000 56.7000 reunion main 921 861 O________OO___ jtwc_sh SH081973 -8.10000 56.7000 -1 -8.10000 56.7000 TC 25 -8.10000 56.7000 1 12 230
1973002S07060 1973 1 SI MM CHARLOTTE 1973-01-03 09:00:00 TS -8.51336 56.2245 main 851 775 P________PP___ SH081973 -8.52740 56.2374 -1 -8.52740 56.2374 TC 25 -8.48527 56.1987 1 13 229
1973002S07060 1973 1 SI MM CHARLOTTE 1973-01-03 12:00:00 TS -8.97747 55.6799 reunion main 775 696 O________OP___ jtwc_sh SH081973 -9.00000 55.7000 -1 -9.00000 55.7000 TC 25 -8.93239 55.6398 1 15 231
1973002S07060 1973 1 SI MM CHARLOTTE 1973-01-03 15:00:00 TS -9.43776 55.0602 main 696 601 P________PP___ SH081973 -9.44999 55.0724 -1 -9.44999 55.0724 TC 25 -9.41329 55.0359 1 16 234
1973002S07060 1973 1 SI MM CHARLOTTE 1973-01-03 18:00:00 TS -9.90000 54.4000 reunion main 601 497 O________OO___ jtwc_sh SH081973 -9.90000 54.4000 -1 -9.90000 54.4000 TC 25 -9.90000 54.4000 1 18 235
1973002S07060 1973 1 SI MM CHARLOTTE 1973-01-03 21:00:00 TS -10.4567 53.6042 main 490 402 P________PP___ SH081973 -10.3498 53.7573 -1 -10.3498 53.7573 TC 25 -10.3701 53.7537 1 18 237
1973002S07060 1973 1 SI MM CHARLOTTE 1973-01-04 00:00:00 TS -10.8843 52.8700 reunion main 402 321 O____O___OP_O_ jtwc_sh SH081973 -10.8000 53.1000 -1 -11.1000 52.2000 99 9.90000 -10.8000 53.1000 TC 25 -10.8373 53.0800 1 -11.1000 52.2000 TC 30 16 241
1973002S07060 1973 1 SI MM CHARLOTTE 1973-01-04 03:00:00 TS -11.2162 52.1887 main 321 249 P____P___PP_P_ SH081973 -11.2649 52.4000 -1 -11.0800 51.7946 99 -11.2649 52.4000 TC 30 -11.2857 52.3912 1 -11.0800 51.7946 TC 30 14 245
1973002S07060 1973 1 SI MM CHARLOTTE 1973-01-04 06:00:00 TS -11.5000 51.5400 reunion main 241 169 O____O___OO_O_ jtwc_sh SH081973 -11.7000 51.7000 -1 -11.2000 51.3000 2 9.90000 -11.7000 51.7000 TC 35 -11.7000 51.7000 2 -11.2000 51.3000 TC 30 14 243
1973002S07060 1973 1 SI MM CHARLOTTE 1973-01-04 09:00:00 TS -11.8583 50.8877 main 163 93 P____P___PP_P_ SH081973 -12.0722 51.0497 -1 -11.5351 50.6654 2 -12.0722 51.0497 TC 35 -12.0769 51.0084 2 -11.5351 50.6654 TC 30 15 241
1973002S07060 1973 1 SI MM CHARLOTTE 1973-01-04 12:00:00 TS -12.2034 50.2239 reunion main 83 15 O____O___OP_O_ jtwc_sh SH081973 -12.4000 50.4000 -1 -11.9000 50.0000 99 9.90000 -12.4000 50.4000 TC 35 -12.4172 50.3196 2 -11.9000 50.0000 TC 30 14 246
1973002S07060 1973 1 SI MM CHARLOTTE 1973-01-04 15:00:00 TS -12.4265 49.6007 main 15 0 P____P___PP_P_ SH081973 -12.7224 49.7000 -1 -11.9820 49.4787 99 -12.7224 49.7000 TC 35 -12.7239 49.6460 2 -11.9820 49.4787 TC 30 13 249
1973002S07060 1973 1 SI MM CHARLOTTE 1973-01-04 18:00:00 TS -12.6800 48.9600 reunion main 0 0 O____O___OO_O_ jtwc_sh SH081973 -13.0000 49.0000 -1 -12.2000 48.9000 99 9.90000 -13.0000 49.0000 TC 35 -13.0000 49.0000 2 -12.2000 48.9000 TC 30 15 243
1973002S07060 1973 1 SI MM CHARLOTTE 1973-01-04 21:00:00 TS -13.1029 48.2148 main 55 31 P____P___PP_P_ SH081973 -13.2074 48.3198 -1 -12.9331 48.0438 99 -13.2074 48.3198 TC 35 -13.2333 48.3469 2 -12.9331 48.0438 TC 30 17 238
1973002S07060 1973 1 SI MM CHARLOTTE 1973-01-05 00:00:00 TS -13.5685 47.5059 reunion main 44 44 O____O___OP_O_ jtwc_sh SH081973 -13.4000 47.7000 -1 -13.8000 47.2000 99 9.90000 -13.4000 47.7000 TC 35 -13.4425 47.7293 2 -13.8000 47.2000 TC 30 15 235
1973002S07060 1973 1 SI MM CHARLOTTE 1973-01-05 03:00:00 TS -13.9839 46.9283 main 97 97 P____P___PP_P_ SH081973 -13.6274 47.1549 -1 -14.5047 46.5799 99 -13.6274 47.1549 TC 35 -13.6554 47.1721 2 -14.5047 46.5799 TC 32 12 232
1973002S07060 1973 1 SI MM CHARLOTTE 1973-01-05 06:00:00 TS -14.3400 46.5000 reunion main 109 95 O____O___OO_O_ jtwc_sh SH081973 -13.9000 46.7000 -1 -15.0000 46.2000 2 9.90000 -13.9000 46.7000 TC 35 -13.9000 46.7000 2 -15.0000 46.2000 TC 35 9 228
1973002S07060 1973 1 SI MM CHARLOTTE 1973-01-05 09:00:00 TS -14.5938 46.2176 main 99 85 P____P___PP_P_ SH081973 -14.2349 46.3050 -1 -15.1448 46.0820 2 -14.2349 46.3050 TC 35 -14.2093 46.3142 2 -15.1448 46.0820 TC 37 7 222
1973002S07060 1973 1 SI MM CHARLOTTE 1973-01-05 12:00:00 TS -14.8309 46.0430 reunion main 93 77 O____O___OP_O_ jtwc_sh SH081973 -14.6000 46.0000 -1 -15.2000 46.1000 99 9.90000 -14.6000 46.0000 TC 35 -14.5542 46.0148 2 -15.2000 46.1000 TC 40 7 210
1973002S07060 1973 1 SI MM CHARLOTTE 1973-01-05 15:00:00 TS -15.1614 45.8816 main 68 39 P____P___PP_P_ SH081973 -14.9499 45.7699 -1 -15.4925 46.0425 99 -14.9499 45.7699 TC 35 -14.9221 45.7830 2 -15.4925 46.0425 TC 37 7 202
1973002S07060 1973 1 SI MM CHARLOTTE 1973-01-05 18:00:00 TS -15.5000 45.7600 reunion main 39 11 O____O___OO_O_ jtwc_sh SH081973 -15.3000 45.6000 -1 -15.8000 46.0000 99 9.90000 -15.3000 45.6000 TC 35 -15.3000 45.6000 2 -15.8000 46.0000 TC 35 7 200
1973002S07060 1973 1 SI MM CHARLOTTE 1973-01-05 21:00:00 TS -15.7765 45.6468 main 11 0 P____P___PP_P_ SH081973 -15.6425 45.4349 -1 -15.9650 45.9925 99 -15.6425 45.4349 TC 35 -15.6676 45.3793 2 -15.9650 45.9925 TC 35 6 199
1973002S07060 1973 1 SI MM CHARLOTTE 1973-01-06 00:00:00 TS -16.0485 45.5616 reunion main 0 0 O____O___OP_O_ jtwc_sh SH081973 -16.0000 45.3000 -1 -16.1000 46.0000 99 9.90000 -16.0000 45.3000 TC 35 -16.0423 45.2081 2 -16.1000 46.0000 TC 35 6 196
1973002S07060 1973 1 SI MM CHARLOTTE 1973-01-06 03:00:00 TS -16.3521 45.4746 main 0 0 P____P___PP_P_ SH081973 -16.4000 45.1626 -1 -16.2700 45.9701 99 -16.4000 45.1626 TC 35 -16.4207 45.1077 2 -16.2700 45.9701 TC 32 6 189
1973002S07060 1973 1 SI MM CHARLOTTE 1973-01-06 06:00:00 TS -16.6800 45.4600 reunion main 0 0 O____O___OO_O_ jtwc_sh SH081973 -16.8000 45.1000 -1 -16.5000 46.0000 6 9.90000 -16.8000 45.1000 TC 35 -16.8000 45.1000 2 -16.5000 46.0000 TC 30 7 174
1973002S07060 1973 1 SI MM CHARLOTTE 1973-01-06 09:00:00 TS -17.0269 45.5458 main 0 0 P____P___PP_P_ SH081973 -17.1499 45.1401 -1 -16.8200 46.1476 6 -17.1499 45.1401 TC 35 -17.1948 45.1536 2 -16.8200 46.1476 TC 30 8 159
1973002S07060 1973 1 SI MM CHARLOTTE 1973-01-06 12:00:00 TS -17.3973 45.7410 reunion main 0 0 O____O___OP_O_ jtwc_sh SH081973 -17.5000 45.3000 -1 -17.2000 46.4000 99 9.90000 -17.5000 45.3000 TC 35 -17.5867 45.3049 2 -17.2000 46.4000 TC 30 9 151
1973002S07060 1973 1 SI MM CHARLOTTE 1973-01-06 15:00:00 TS -17.8009 45.9998 main 0 0 P____P___PP_P_ SH081973 -17.9073 45.5326 -1 -17.6148 46.6900 99 -17.9073 45.5326 TC 35 -17.9602 45.5538 2 -17.6148 46.6900 TC 30 10 142
1973002S07060 1973 1 SI MM CHARLOTTE 1973-01-06 18:00:00 TS -18.1800 46.3800 reunion main 0 0 O____O___OO_O_ jtwc_sh SH081973 -18.3000 45.9000 -1 -18.0000 47.1000 99 9.90000 -18.3000 45.9000 TC 35 -18.3000 45.9000 2 -18.0000 47.1000 TC 30 11 128
1973002S07060 1973 1 SI MM CHARLOTTE 1973-01-06 21:00:00 TS -18.4850 46.9059 main 0 0 P____P___PP_P_ SH081973 -18.6302 46.4199 -1 -18.2725 47.6552 99 -18.6302 46.4199 TC 35 -18.6197 46.3793 2 -18.2725 47.6552 TC 30 12 118
1973002S07060 1973 1 SI MM CHARLOTTE 1973-01-07 00:00:00 TS -18.7399 47.5082 reunion main 0 0 O____O___OP_O_ jtwc_sh SH081973 -18.9000 47.0000 -1 -18.5000 48.3000 99 9.90000 -18.9000 47.0000 TC 35 -18.8994 46.9411 2 -18.5000 48.3000 TC 30 13 114
1973002S07060 1973 1 SI MM CHARLOTTE 1973-01-07 03:00:00 TS -18.9900 48.1174 main 0 0 P____P___PP_P_ SH081973 -19.1375 47.5450 -1 -18.7728 48.9947 99 -19.1375 47.5450 TC 35 -19.1292 47.5075 2 -18.7728 48.9947 TC 32 11 115
1973002S07060 1973 1 SI MM CHARLOTTE 1973-01-07 06:00:00 TS -19.2000 48.5333 reunion main 0 0 O____O___OO_O_ jtwc_sh SH081973 -19.3000 48.0000 -1 -19.0000 49.6000 3 9.90000 -19.3000 48.0000 TC 35 -19.3000 48.0000 2 -19.0000 49.6000 TC 35 6 120
1973002S07060 1973 1 SI MM CHARLOTTE 1973-01-07 09:00:00 TS -19.3087 48.7092 main 0 0 P____P___PP_P_ SH081973 -19.3723 48.2952 -1 -19.1220 49.9591 3 -19.3723 48.2952 TC 35 -19.3984 48.3082 2 -19.1220 49.9591 TC 37 3 132
1973002S07060 1973 1 SI MM CHARLOTTE 1973-01-07 12:00:00 TS -19.3840 48.7525 reunion main 0 0 O____O___OP_O_ jtwc_sh SH081973 -19.4000 48.5000 -1 -19.2000 50.2000 99 9.90000 -19.4000 48.5000 TC 35 -19.4438 48.5337 2 -19.2000 50.2000 TC 40 1 175
1973002S07060 1973 1 SI MM CHARLOTTE 1973-01-07 15:00:00 TS -19.4508 48.7108 main 0 0 P____P___PP_P_ SH081973 -19.4425 48.7076 -1 -19.3393 50.5423 99 -19.4425 48.7076 TC 35 -19.4674 48.7173 2 -19.3393 50.5423 TC 2 130
1973002S07060 1973 1 SI MM CHARLOTTE 1973-01-07 18:00:00 TS -19.5000 48.9000 reunion main 10 10 O____P___OO_P_ jtwc_sh SH081973 -19.5000 48.9000 -1 -19.5064 50.9132 99 -19.5000 48.9000 TC 35 -19.5000 48.9000 2 -19.5064 50.9132 TC 4 111
1973002S07060 1973 1 SI MM CHARLOTTE 1973-01-07 21:00:00 TS -19.5871 49.0828 main 30 30 P____P___PP_P_ SH081973 -19.5924 49.0850 -1 -19.6940 51.3036 99 -19.5924 49.0850 TC 35 -19.5765 49.0783 2 -19.6940 51.3036 TC 4 117
1973002S07060 1973 1 SI MM CHARLOTTE 1973-01-08 00:00:00 TS -19.6895 49.2911 reunion main 52 52 O____P___OP_P_ jtwc_sh SH081973 -19.7000 49.3000 -1 -19.8951 51.7044 99 -19.7000 49.3000 TC 35 -19.6684 49.2734 2 -19.8951 51.7044 TC 5 115
1973002S07060 1973 1 SI MM CHARLOTTE 1973-01-08 03:00:00 TS -19.7868 49.5373 main 73 73 P____P___PP_P_ SH081973 -19.7922 49.5402 -1 -20.1027 52.1063 99 -19.7922 49.5402 TC 35 -19.7761 49.5317 2 -20.1027 52.1063 TC 6 110
1973002S07060 1973 1 SI MM CHARLOTTE 1973-01-08 06:00:00 TS -19.9000 49.9000 reunion main 115 115 O____P___OO_P_ jtwc_sh SH081973 -19.9000 49.9000 -1 -20.3100 52.4999 99 -19.9000 49.9000 TC 35 -19.9000 49.9000 2 -20.3100 52.4999 TC 9 106
1973002S07060 1973 1 SI MM CHARLOTTE 1973-01-08 09:00:00 TS -20.0323 50.4358 main 167 167 P____P___PP_P_ SH081973 -20.0425 50.4400 -1 -20.5100 52.8758 99 -20.0425 50.4400 TC 35 -20.0119 50.4275 2 -20.5100 52.8758 TC 12 104
1973002S07060 1973 1 SI MM CHARLOTTE 1973-01-08 12:00:00 TS -20.1803 51.0887 reunion main 241 241 O____P___OP_P_ jtwc_sh SH081973 -20.2000 51.1000 -1 -20.6962 53.2242 99 -20.2000 51.1000 TC 35 -20.1408 51.0662 2 -20.6962 53.2242 TC 13 103
1973002S07060 1973 1 SI MM CHARLOTTE 1973-01-08 15:00:00 TS -20.3179 51.7709 main 314 275 P____P___PP_P_ SH081973 -20.3272 51.7705 -1 -20.8617 53.5355 99 -20.3272 51.7705 TC 35 -20.2992 51.7717 2 -20.8617 53.5355 TC 15 105
1973002S07060 1973 1 SI MM CHARLOTTE 1973-01-08 18:00:00 TS -20.5714 52.6857 reunion main 265 189 O____O___OO_O_ jtwc_sh SH081973 -20.5000 52.5000 -1 -21.0000 53.8000 99 9.90000 -20.5000 52.5000 TC 35 -20.5000 52.5000 2 -21.0000 53.8000 TC 45 17 109
1973002S07060 1973 1 SI MM CHARLOTTE 1973-01-08 21:00:00 TS -20.8575 53.4737 main 177 114 P____P___PP_P_ SH081973 -20.7777 53.3147 -1 -21.0684 53.9730 99 -20.7777 53.3147 TC 35 -20.7825 53.2648 2 -21.0684 53.9730 TC 45 15 113
1973002S07060 1973 1 SI MM CHARLOTTE 1973-01-09 00:00:00 TS -21.1338 54.1182 reunion main 114 61 O____O___OP_O_ jtwc_sh SH081973 -21.1000 54.1000 -1 -21.2000 54.2000 99 9.90000 -21.1000 54.1000 TC 35 -21.1020 54.0321 2 -21.2000 54.2000 TC 45 13 117
1973002S07060 1973 1 SI MM CHARLOTTE 1973-01-09 03:00:00 TS -21.4501 54.6995 main 66 45 P____P___PP_P_ SH081973 -21.4149 54.7825 -1 -21.5003 54.5995 99 -21.4149 54.7825 TC 35 -21.4202 54.7336 2 -21.5003 54.5995 TC 45 12 122
1973002S07060 1973 1 SI MM CHARLOTTE 1973-01-09 06:00:00 TS -21.7400 55.1800 reunion main 45 45 O____O___OO_O_ jtwc_sh SH081973 -21.7000 55.3000 -1 -21.8000 55.0000 3 9.90000 -21.7000 55.3000 TC 35 -21.7000 55.3000 2 -21.8000 55.0000 TC 45 9 123
1973002S07060 1973 1 SI MM CHARLOTTE 1973-01-09 09:00:00 TS -21.9149 55.4645 main 56 56 P____P___PP_P_ SH081973 -21.9297 55.6178 -1 -21.8998 55.2230 3 -21.9297 55.6178 TC 35 -21.9156 55.6411 2 -21.8998 55.2230 TC 45 5 126
1973002S07060 1973 1 SI MM CHARLOTTE 1973-01-09 12:00:00 TS -22.0575 55.6488 reunion main 78 78 O____O___OP_O_ jtwc_sh SH081973 -22.1000 55.8000 -1 -22.0000 55.4000 99 9.90000 -22.1000 55.8000 TC 35 -22.0877 55.8441 2 -22.0000 55.4000 TC 45 5 134
1973002S07060 1973 1 SI MM CHARLOTTE 1973-01-09 15:00:00 TS -22.2492 55.8409 main 91 91 P____P___PP_P_ SH081973 -22.2299 55.9501 -1 -22.2851 55.6647 99 -22.2299 55.9501 TC 35 -22.2161 55.9750 2 -22.2851 55.6647 TC 42 5 137
1973002S07060 1973 1 SI MM CHARLOTTE 1973-01-09 18:00:00 TS -22.4200 56.0200 reunion main 119 119 O____O___OO_O_ jtwc_sh SH081973 -22.3000 56.1000 -1 -22.6000 55.9000 99 9.90000 -22.3000 56.1000 TC 35 -22.3000 56.1000 2 -22.6000 55.9000 TC 40 4 126
1973002S07060 1973 1 SI MM CHARLOTTE 1973-01-09 21:00:00 TS -22.4960 56.2090 main 137 137 P____P___PP_P_ SH081973 -22.3151 56.3426 -1 -22.7999 56.0004 99 -22.3151 56.3426 TC 30 -22.2499 56.3591 2 -22.7999 56.0004 TC 40 4 111
1973002S07060 1973 1 SI MM CHARLOTTE 1973-01-10 00:00:00 TS -22.5546 56.4037 reunion main 157 157 O____O___OP_O_ jtwc_sh SH081973 -22.3000 56.6000 -1 -23.0000 56.1000 99 9.90000 -22.3000 56.6000 TC 25 -22.1728 56.6183 2 -23.0000 56.1000 TC 40 4 109
1973002S07060 1973 1 SI MM CHARLOTTE 1973-01-10 03:00:00 TS -22.6359 56.6376 main 167 167 P____P___PP_P_ SH081973 -22.2175 56.8376 -1 -23.2926 56.3348 99 -22.2175 56.8376 TC 25 -22.1593 56.8431 2 -23.2926 56.3348 TC 37 5 123
1973002S07060 1973 1 SI MM CHARLOTTE 1973-01-10 06:00:00 MX -22.8200 56.8400 reunion main 196 196 O____O___OO_O_ jtwc_sh SH081973 -22.3000 57.0000 -1 -23.6000 56.6000 3 9.90000 -22.3000 57.0000 TC 25 -22.3000 57.0000 1 -23.6000 56.6000 EX 35 6 153
1973002S07060 1973 1 SI MM CHARLOTTE 1973-01-10 09:00:00 MX -23.1899 56.9422 main 240 240 P____P___PP_P_ SH081973 -22.7600 57.0375 -1 -23.8274 56.8004 3 -22.7600 57.0375 TC 25 -22.7745 57.0353 1 -23.8274 56.8004 EX 35 9 170
1973002S07060 1973 1 SI MM CHARLOTTE 1973-01-10 12:00:00 MX -23.6795 57.0007 reunion main 294 294 O____O___OP_O_ jtwc_sh SH081973 -23.4000 57.0000 -1 -24.1000 57.0000 99 9.90000 -23.4000 57.0000 TC 25 -23.3974 57.0037 1 -24.1000 57.0000 EX 35 10 175
1973002S07060 1973 1 SI MM CHARLOTTE 1973-01-10 15:00:00 MX -24.2103 57.0440 main 344 344 P____P___PP_P_ SH081973 -24.0600 56.9502 -1 -24.5076 57.2369 99 -24.0600 56.9502 TC 25 -24.0466 56.9450 1 -24.5076 57.2369 EX 32 10 178
1973002S07060 1973 1 SI MM CHARLOTTE 1973-01-10 18:00:00 MX -24.7000 57.0500 reunion main 399 395 O____O___OO_O_ jtwc_sh SH081973 -24.6000 56.9000 -1 -25.0000 57.5000 99 9.90000 -24.6000 56.9000 TC 25 -24.6000 56.9000 6 -25.0000 57.5000 EX 30 7 183
1973002S07060 1973 1 SI MM CHARLOTTE 1973-01-10 21:00:00 MX -24.9147 57.0025 main 416 413 P________PP___ SH081973 -24.8100 56.8775 -1 99 -24.8100 56.8775 TC 25 -24.8529 56.8685 6 EX 3 212
1973002S07060 1973 1 SI MM CHARLOTTE 1973-01-11 00:00:00 TS -24.9339 56.8890 reunion main 413 413 O________OP___ jtwc_sh SH081973 -24.9000 56.9000 -1 -24.9000 56.9000 TC 25 -25.0016 56.8669 6 2 198
1973002S07060 1973 1 SI MM CHARLOTTE 1973-01-11 03:00:00 TS -25.0831 56.9425 main 434 434 P________PP___ SH081973 -25.0624 56.9479 -1 -25.0624 56.9479 TC 25 -25.1245 56.9317 6 4 152
1973002S07060 1973 1 SI MM CHARLOTTE 1973-01-11 06:00:00 TS -25.3000 57.1000 reunion main 461 461 O________OO___ jtwc_sh SH081973 -25.3000 57.1000 -1 -25.3000 57.1000 TC 25 -25.3000 57.1000 1 7 145
1973002S07060 1973 1 SI MM CHARLOTTE 1973-01-11 09:00:00 TS -25.6652 57.3892 main 514 514 P________PP___ SH081973 -25.6699 57.3900 -1 -25.6699 57.3900 TC 25 -25.6556 57.3877 1 10 142
1973002S07060 1973 1 SI MM CHARLOTTE 1973-01-11 12:00:00 TS -26.0899 57.7945 reunion main 570 570 O________OP___ jtwc_sh SH081973 -26.1000 57.8000 -1 -26.1000 57.8000 TC 25 -26.0698 57.7836 1 12 137
1973002S07060 1973 1 SI MM CHARLOTTE 1973-01-11 15:00:00 TS -26.5096 58.2627 main 632 632 P________PP___ SH081973 -26.5149 58.2626 -1 -26.5149 58.2626 TC 25 -26.4991 58.2629 1 12 132
1973002S07060 1973 1 SI MM CHARLOTTE 1973-01-11 18:00:00 TS -26.9000 58.8000 reunion main 694 694 O________OO___ jtwc_sh SH081973 -26.9000 58.8000 -1 -26.9000 58.8000 TC 25 -26.9000 58.8000 1 12 126
1973002S07060 1973 1 SI MM CHARLOTTE 1973-01-11 21:00:00 TS -27.2271 59.3841 main 753 753 P________PP___ SH081973 -27.2224 59.3853 -1 -27.2224 59.3853 TC 25 -27.2363 59.3818 1 12 120
1973002S07060 1973 1 SI MM CHARLOTTE 1973-01-12 00:00:00 TS -27.5113 60.0022 reunion main 812 812 O________OP___ jtwc_sh SH081973 -27.5000 60.0000 -1 -27.5000 60.0000 TC 25 -27.5340 60.0067 1 12 117
1973002S07060 1973 1 SI MM CHARLOTTE 1973-01-12 03:00:00 TS -27.7782 60.6245 main 867 867 P________PP___ SH081973 -27.7725 60.6225 -1 -27.7725 60.6225 TC 25 -27.7895 60.6285 1 12 115
1973002S07060 1973 1 SI MM CHARLOTTE 1973-01-12 06:00:00 TS -28.0000 61.2000 reunion main 909 909 O________OO___ jtwc_sh SH081973 -28.0000 61.2000 -1 -28.0000 61.2000 TC 25 -28.0000 61.2000 7 10 113
1973002S07060 1973 1 SI MM CHARLOTTE 1973-01-12 09:00:00 TS -28.1701 61.6871 main 950 950 P________PP___ SH081973 -28.1722 61.6878 -1 -28.1722 61.6878 TC 25 -28.1658 61.6858 7 8 111
1973002S07060 1973 1 SI MM CHARLOTTE 1973-01-12 12:00:00 TS -28.2989 62.0993 main 978 978 O________OP___ jtwc_sh SH081973 -28.3000 62.1000 -1 -28.3000 62.1000 TC 25 -28.2967 62.0981 7 7 109
1973002S07060 1973 1 SI MM CHARLOTTE 1973-01-12 15:00:00 TS -28.4049 62.4620 main 1007 1007 P________PP___ SH081973 -28.4052 62.4623 -1 -28.4052 62.4623 TC 25 -28.4043 62.4612 7 6 108
1973002S07060 1973 1 SI MM CHARLOTTE 1973-01-12 18:00:00 TS -28.5000 62.8000 main 1031 O________OO___ jtwc_sh SH081973 -28.5000 62.8000 -1 -28.5000 62.8000 TC 25 -28.5000 62.8000 7 6 108

IBTrACS Databaseについて

本データベースは、米国NOAAが公開する1842年以降の世界の熱帯低気圧のベストトラックデータアーカイブInternational Best Track Archive for Climate Stewardship (IBTrACS)を、ウェブで閲覧しやすい形式に変換したものです。

最終更新日:2021-12-06